sensor_id;sensor_type;location;lat;lon;timestamp;temperature;humidity
24164;DHT22;12319;49.204;8.116;2023-01-16T00:00:56;5.30;99.90
24164;DHT22;12319;49.204;8.116;2023-01-16T00:03:22;5.20;99.90
24164;DHT22;12319;49.204;8.116;2023-01-16T00:05:47;5.20;99.90
24164;DHT22;12319;49.204;8.116;2023-01-16T00:08:13;5.20;99.90
24164;DHT22;12319;49.204;8.116;2023-01-16T00:10:39;5.20;99.90
24164;DHT22;12319;49.204;8.116;2023-01-16T00:13:05;5.20;99.90
24164;DHT22;12319;49.204;8.116;2023-01-16T00:15:31;5.10;99.90
24164;DHT22;12319;49.204;8.116;2023-01-16T00:17:57;5.10;99.90
24164;DHT22;12319;49.204;8.116;2023-01-16T00:20:23;5.10;99.90
24164;DHT22;12319;49.204;8.116;2023-01-16T00:22:49;5.10;99.90
24164;DHT22;12319;49.204;8.116;2023-01-16T00:25:14;5.10;99.90
24164;DHT22;12319;49.204;8.116;2023-01-16T00:27:40;5.10;99.90
24164;DHT22;12319;49.204;8.116;2023-01-16T00:30:06;5.10;99.90
24164;DHT22;12319;49.204;8.116;2023-01-16T00:32:32;5.10;99.90
24164;DHT22;12319;49.204;8.116;2023-01-16T00:34:58;5.10;99.90
24164;DHT22;12319;49.204;8.116;2023-01-16T00:37:23;5.10;99.90
24164;DHT22;12319;49.204;8.116;2023-01-16T00:39:49;5.10;99.90
24164;DHT22;12319;49.204;8.116;2023-01-16T00:42:17;5.20;99.90
24164;DHT22;12319;49.204;8.116;2023-01-16T00:44:42;5.20;99.90
24164;DHT22;12319;49.204;8.116;2023-01-16T00:47:08;5.20;99.90
24164;DHT22;12319;49.204;8.116;2023-01-16T00:49:33;5.10;99.90
24164;DHT22;12319;49.204;8.116;2023-01-16T00:51:59;5.20;99.90
24164;DHT22;12319;49.204;8.116;2023-01-16T00:54:24;5.10;99.90
24164;DHT22;12319;49.204;8.116;2023-01-16T00:56:50;5.10;99.90
24164;DHT22;12319;49.204;8.116;2023-01-16T00:59:15;5.10;99.90
24164;DHT22;12319;49.204;8.116;2023-01-16T01:01:41;5.10;99.90
24164;DHT22;12319;49.204;8.116;2023-01-16T01:04:06;5.10;99.90
24164;DHT22;12319;49.204;8.116;2023-01-16T01:06:32;5.10;99.90
24164;DHT22;12319;49.204;8.116;2023-01-16T01:08:58;5.10;99.90
24164;DHT22;12319;49.204;8.116;2023-01-16T01:11:24;5.00;99.90
24164;DHT22;12319;49.204;8.116;2023-01-16T01:13:49;5.10;99.90
24164;DHT22;12319;49.204;8.116;2023-01-16T01:16:15;5.10;99.90
24164;DHT22;12319;49.204;8.116;2023-01-16T01:18:41;5.10;99.90
24164;DHT22;12319;49.204;8.116;2023-01-16T01:21:07;5.10;99.90
24164;DHT22;12319;49.204;8.116;2023-01-16T01:23:33;5.20;99.90
24164;DHT22;12319;49.204;8.116;2023-01-16T01:26:05;5.20;99.90
24164;DHT22;12319;49.204;8.116;2023-01-16T01:28:31;5.20;99.90
24164;DHT22;12319;49.204;8.116;2023-01-16T01:30:56;5.20;99.90
24164;DHT22;12319;49.204;8.116;2023-01-16T01:33:22;5.50;99.90
24164;DHT22;12319;49.204;8.116;2023-01-16T01:35:47;5.20;99.90
24164;DHT22;12319;49.204;8.116;2023-01-16T01:38:13;5.30;99.90
24164;DHT22;12319;49.204;8.116;2023-01-16T01:40:38;5.30;99.90
24164;DHT22;12319;49.204;8.116;2023-01-16T01:43:11;5.20;99.90
24164;DHT22;12319;49.204;8.116;2023-01-16T01:45:38;5.20;99.90
24164;DHT22;12319;49.204;8.116;2023-01-16T01:51:02;5.10;99.90
24164;DHT22;12319;49.204;8.116;2023-01-16T01:53:35;5.10;99.90
24164;DHT22;12319;49.204;8.116;2023-01-16T01:56:15;5.10;99.90
24164;DHT22;12319;49.204;8.116;2023-01-16T01:58:42;5.00;99.90
24164;DHT22;12319;49.204;8.116;2023-01-16T02:01:09;5.00;99.90
24164;DHT22;12319;49.204;8.116;2023-01-16T02:06:43;4.90;99.90
24164;DHT22;12319;49.204;8.116;2023-01-16T02:09:09;4.90;99.90
24164;DHT22;12319;49.204;8.116;2023-01-16T02:11:40;4.90;99.90
24164;DHT22;12319;49.204;8.116;2023-01-16T02:14:09;4.90;99.90
24164;DHT22;12319;49.204;8.116;2023-01-16T02:16:37;4.90;99.90
24164;DHT22;12319;49.204;8.116;2023-01-16T02:28:17;5.10;99.90
24164;DHT22;12319;49.204;8.116;2023-01-16T02:33:54;5.10;99.90
24164;DHT22;12319;49.204;8.116;2023-01-16T02:50:28;5.30;99.90
24164;DHT22;12319;49.204;8.116;2023-01-16T02:55:46;5.20;99.90
24164;DHT22;12319;49.204;8.116;2023-01-16T02:58:13;5.20;99.90
24164;DHT22;12319;49.204;8.116;2023-01-16T03:00:52;5.20;99.90
24164;DHT22;12319;49.204;8.116;2023-01-16T03:06:41;5.20;99.90
24164;DHT22;12319;49.204;8.116;2023-01-16T03:09:32;5.20;99.90
24164;DHT22;12319;49.204;8.116;2023-01-16T03:15:06;5.10;99.90
24164;DHT22;12319;49.204;8.116;2023-01-16T03:17:50;5.10;99.90
24164;DHT22;12319;49.204;8.116;2023-01-16T03:20:30;5.10;99.90
24164;DHT22;12319;49.204;8.116;2023-01-16T03:26:13;5.30;99.90
24164;DHT22;12319;49.204;8.116;2023-01-16T03:31:26;5.30;99.90
24164;DHT22;12319;49.204;8.116;2023-01-16T03:34:21;5.20;99.90
24164;DHT22;12319;49.204;8.116;2023-01-16T03:37:07;5.20;99.90
24164;DHT22;12319;49.204;8.116;2023-01-16T03:39:43;5.20;99.90
24164;DHT22;12319;49.204;8.116;2023-01-16T03:42:17;5.30;99.90
24164;DHT22;12319;49.204;8.116;2023-01-16T03:44:50;5.30;99.90
24164;DHT22;12319;49.204;8.116;2023-01-16T03:47:24;5.20;99.90
24164;DHT22;12319;49.204;8.116;2023-01-16T03:50:01;5.20;99.90
24164;DHT22;12319;49.204;8.116;2023-01-16T03:52:36;5.20;99.90
24164;DHT22;12319;49.204;8.116;2023-01-16T03:57:45;5.20;99.90
24164;DHT22;12319;49.204;8.116;2023-01-16T04:00:12;5.10;99.90
24164;DHT22;12319;49.204;8.116;2023-01-16T04:03:03;5.20;99.90
24164;DHT22;12319;49.204;8.116;2023-01-16T04:05:40;5.10;99.90
24164;DHT22;12319;49.204;8.116;2023-01-16T04:08:47;5.00;99.90
24164;DHT22;12319;49.204;8.116;2023-01-16T04:11:06;5.00;99.90
24164;DHT22;12319;49.204;8.116;2023-01-16T04:13:36;4.90;99.90
24164;DHT22;12319;49.204;8.116;2023-01-16T04:16:05;4.90;99.90
24164;DHT22;12319;49.204;8.116;2023-01-16T04:18:34;4.90;99.90
24164;DHT22;12319;49.204;8.116;2023-01-16T04:21:00;4.90;99.90
24164;DHT22;12319;49.204;8.116;2023-01-16T04:23:28;4.80;99.90
24164;DHT22;12319;49.204;8.116;2023-01-16T04:25:54;4.80;99.90
24164;DHT22;12319;49.204;8.116;2023-01-16T04:28:19;4.90;99.90
24164;DHT22;12319;49.204;8.116;2023-01-16T04:30:45;4.80;99.90
24164;DHT22;12319;49.204;8.116;2023-01-16T04:33:10;4.90;99.90
24164;DHT22;12319;49.204;8.116;2023-01-16T04:35:36;4.90;99.90
24164;DHT22;12319;49.204;8.116;2023-01-16T04:38:01;4.90;99.90
24164;DHT22;12319;49.204;8.116;2023-01-16T04:40:27;4.90;99.90
24164;DHT22;12319;49.204;8.116;2023-01-16T04:42:53;4.90;99.90
24164;DHT22;12319;49.204;8.116;2023-01-16T04:45:20;4.90;99.90
24164;DHT22;12319;49.204;8.116;2023-01-16T04:47:47;4.90;99.90
24164;DHT22;12319;49.204;8.116;2023-01-16T04:50:13;4.90;99.90
24164;DHT22;12319;49.204;8.116;2023-01-16T04:52:40;4.80;99.90
24164;DHT22;12319;49.204;8.116;2023-01-16T04:55:06;4.90;99.90
24164;DHT22;12319;49.204;8.116;2023-01-16T04:57:32;4.90;99.90
24164;DHT22;12319;49.204;8.116;2023-01-16T04:59:57;4.90;99.90
24164;DHT22;12319;49.204;8.116;2023-01-16T05:02:23;4.90;99.90
24164;DHT22;12319;49.204;8.116;2023-01-16T05:04:48;4.80;99.90
24164;DHT22;12319;49.204;8.116;2023-01-16T05:07:14;4.80;99.90
24164;DHT22;12319;49.204;8.116;2023-01-16T05:09:39;4.80;99.90
24164;DHT22;12319;49.204;8.116;2023-01-16T05:12:05;4.80;99.90
24164;DHT22;12319;49.204;8.116;2023-01-16T05:14:31;4.80;99.90
24164;DHT22;12319;49.204;8.116;2023-01-16T05:16:56;4.80;99.90
24164;DHT22;12319;49.204;8.116;2023-01-16T05:19:22;4.80;99.90
24164;DHT22;12319;49.204;8.116;2023-01-16T05:21:47;4.80;99.90
24164;DHT22;12319;49.204;8.116;2023-01-16T05:24:13;4.80;99.90
24164;DHT22;12319;49.204;8.116;2023-01-16T05:26:38;4.90;99.90
24164;DHT22;12319;49.204;8.116;2023-01-16T05:29:04;4.90;99.90
24164;DHT22;12319;49.204;8.116;2023-01-16T05:31:29;4.90;99.90
24164;DHT22;12319;49.204;8.116;2023-01-16T05:33:55;4.90;99.90
24164;DHT22;12319;49.204;8.116;2023-01-16T05:36:20;4.80;99.90
24164;DHT22;12319;49.204;8.116;2023-01-16T05:38:46;4.80;99.90
24164;DHT22;12319;49.204;8.116;2023-01-16T05:41:12;4.80;99.90
24164;DHT22;12319;49.204;8.116;2023-01-16T05:43:37;4.80;99.90
24164;DHT22;12319;49.204;8.116;2023-01-16T05:46:03;4.80;99.90
24164;DHT22;12319;49.204;8.116;2023-01-16T05:48:29;4.80;99.90
24164;DHT22;12319;49.204;8.116;2023-01-16T05:50:56;4.80;99.90
24164;DHT22;12319;49.204;8.116;2023-01-16T05:53:22;4.80;99.90
24164;DHT22;12319;49.204;8.116;2023-01-16T05:55:48;4.80;99.90
24164;DHT22;12319;49.204;8.116;2023-01-16T05:58:15;4.80;99.90
24164;DHT22;12319;49.204;8.116;2023-01-16T06:00:42;4.80;99.90
24164;DHT22;12319;49.204;8.116;2023-01-16T06:03:08;4.80;99.90
24164;DHT22;12319;49.204;8.116;2023-01-16T06:05:34;4.70;99.90
24164;DHT22;12319;49.204;8.116;2023-01-16T06:08:00;4.70;99.90
24164;DHT22;12319;49.204;8.116;2023-01-16T06:10:26;4.70;99.90
24164;DHT22;12319;49.204;8.116;2023-01-16T06:12:52;4.70;99.90
24164;DHT22;12319;49.204;8.116;2023-01-16T06:15:18;4.70;99.90
24164;DHT22;12319;49.204;8.116;2023-01-16T06:17:43;4.60;99.90
24164;DHT22;12319;49.204;8.116;2023-01-16T06:20:09;4.70;99.90
24164;DHT22;12319;49.204;8.116;2023-01-16T06:22:35;4.70;99.90
24164;DHT22;12319;49.204;8.116;2023-01-16T06:25:01;4.60;99.90
24164;DHT22;12319;49.204;8.116;2023-01-16T06:27:26;4.60;99.90
24164;DHT22;12319;49.204;8.116;2023-01-16T06:29:52;4.60;99.90
24164;DHT22;12319;49.204;8.116;2023-01-16T06:32:17;4.60;99.90
24164;DHT22;12319;49.204;8.116;2023-01-16T06:34:43;4.50;99.90
24164;DHT22;12319;49.204;8.116;2023-01-16T06:37:10;4.50;99.90
24164;DHT22;12319;49.204;8.116;2023-01-16T06:39:36;4.50;99.90
24164;DHT22;12319;49.204;8.116;2023-01-16T06:42:01;4.40;99.90
24164;DHT22;12319;49.204;8.116;2023-01-16T06:44:30;4.40;99.90
24164;DHT22;12319;49.204;8.116;2023-01-16T06:46:56;4.40;99.90
24164;DHT22;12319;49.204;8.116;2023-01-16T06:49:22;4.40;99.90
24164;DHT22;12319;49.204;8.116;2023-01-16T06:51:47;4.40;99.90
24164;DHT22;12319;49.204;8.116;2023-01-16T06:54:13;4.40;99.90
24164;DHT22;12319;49.204;8.116;2023-01-16T06:56:39;4.40;99.90
24164;DHT22;12319;49.204;8.116;2023-01-16T06:59:04;4.40;99.90
24164;DHT22;12319;49.204;8.116;2023-01-16T07:01:30;4.40;99.90
24164;DHT22;12319;49.204;8.116;2023-01-16T07:03:55;4.40;99.90
24164;DHT22;12319;49.204;8.116;2023-01-16T07:06:21;4.40;99.90
24164;DHT22;12319;49.204;8.116;2023-01-16T07:08:46;4.40;99.90
24164;DHT22;12319;49.204;8.116;2023-01-16T07:11:16;4.40;99.90
24164;DHT22;12319;49.204;8.116;2023-01-16T07:13:42;4.40;99.90
24164;DHT22;12319;49.204;8.116;2023-01-16T07:16:10;4.40;99.90
24164;DHT22;12319;49.204;8.116;2023-01-16T07:18:54;4.40;99.90
24164;DHT22;12319;49.204;8.116;2023-01-16T07:21:40;4.50;99.90
24164;DHT22;12319;49.204;8.116;2023-01-16T07:24:27;4.50;99.90
24164;DHT22;12319;49.204;8.116;2023-01-16T07:26:57;4.50;99.90
24164;DHT22;12319;49.204;8.116;2023-01-16T07:29:25;4.50;99.90
24164;DHT22;12319;49.204;8.116;2023-01-16T07:31:51;4.50;99.90
24164;DHT22;12319;49.204;8.116;2023-01-16T07:34:17;4.60;99.90
24164;DHT22;12319;49.204;8.116;2023-01-16T07:36:42;4.50;99.90
24164;DHT22;12319;49.204;8.116;2023-01-16T07:39:08;4.50;99.90
24164;DHT22;12319;49.204;8.116;2023-01-16T07:41:33;4.60;99.90
24164;DHT22;12319;49.204;8.116;2023-01-16T07:43:59;4.60;99.90
24164;DHT22;12319;49.204;8.116;2023-01-16T07:46:25;4.60;99.90
24164;DHT22;12319;49.204;8.116;2023-01-16T07:48:50;4.60;99.90
24164;DHT22;12319;49.204;8.116;2023-01-16T07:51:18;4.60;99.90
24164;DHT22;12319;49.204;8.116;2023-01-16T07:53:44;4.60;99.90
24164;DHT22;12319;49.204;8.116;2023-01-16T07:56:09;4.70;99.90
24164;DHT22;12319;49.204;8.116;2023-01-16T07:58:35;4.60;99.90
24164;DHT22;12319;49.204;8.116;2023-01-16T08:01:01;4.70;99.90
24164;DHT22;12319;49.204;8.116;2023-01-16T08:03:26;4.80;99.90
24164;DHT22;12319;49.204;8.116;2023-01-16T08:05:56;4.80;99.90
24164;DHT22;12319;49.204;8.116;2023-01-16T08:08:22;4.90;99.90
24164;DHT22;12319;49.204;8.116;2023-01-16T08:10:53;4.90;99.90
24164;DHT22;12319;49.204;8.116;2023-01-16T08:13:19;4.90;99.90
24164;DHT22;12319;49.204;8.116;2023-01-16T08:15:45;4.90;99.90
24164;DHT22;12319;49.204;8.116;2023-01-16T08:18:11;4.90;99.90
24164;DHT22;12319;49.204;8.116;2023-01-16T08:20:37;4.90;99.90
24164;DHT22;12319;49.204;8.116;2023-01-16T08:23:03;5.00;99.90
24164;DHT22;12319;49.204;8.116;2023-01-16T08:25:28;5.00;99.90
24164;DHT22;12319;49.204;8.116;2023-01-16T08:27:54;5.10;99.90
24164;DHT22;12319;49.204;8.116;2023-01-16T08:30:20;5.10;99.90
24164;DHT22;12319;49.204;8.116;2023-01-16T08:32:45;5.20;99.90
24164;DHT22;12319;49.204;8.116;2023-01-16T08:35:11;5.20;99.90
24164;DHT22;12319;49.204;8.116;2023-01-16T08:37:37;5.30;99.90
24164;DHT22;12319;49.204;8.116;2023-01-16T08:40:02;5.30;99.90
24164;DHT22;12319;49.204;8.116;2023-01-16T08:42:31;5.30;99.90
24164;DHT22;12319;49.204;8.116;2023-01-16T08:45:15;5.30;99.90
24164;DHT22;12319;49.204;8.116;2023-01-16T08:48:00;5.30;99.90
24164;DHT22;12319;49.204;8.116;2023-01-16T08:50:46;5.30;99.90
24164;DHT22;12319;49.204;8.116;2023-01-16T08:53:31;5.30;99.90
24164;DHT22;12319;49.204;8.116;2023-01-16T08:55:57;5.30;99.90
24164;DHT22;12319;49.204;8.116;2023-01-16T08:58:22;5.30;99.90
24164;DHT22;12319;49.204;8.116;2023-01-16T09:00:48;5.30;99.90
24164;DHT22;12319;49.204;8.116;2023-01-16T09:03:15;5.40;99.90
24164;DHT22;12319;49.204;8.116;2023-01-16T09:05:44;5.50;99.90
24164;DHT22;12319;49.204;8.116;2023-01-16T09:08:10;5.50;99.90
24164;DHT22;12319;49.204;8.116;2023-01-16T09:10:36;5.60;99.90
24164;DHT22;12319;49.204;8.116;2023-01-16T09:13:02;5.60;99.90
24164;DHT22;12319;49.204;8.116;2023-01-16T09:16:02;5.70;99.90
24164;DHT22;12319;49.204;8.116;2023-01-16T09:18:27;5.80;99.90
24164;DHT22;12319;49.204;8.116;2023-01-16T09:20:53;5.80;99.90
24164;DHT22;12319;49.204;8.116;2023-01-16T09:23:18;5.80;99.90
24164;DHT22;12319;49.204;8.116;2023-01-16T09:25:44;5.90;99.90
24164;DHT22;12319;49.204;8.116;2023-01-16T09:28:09;5.90;99.90
24164;DHT22;12319;49.204;8.116;2023-01-16T09:30:35;6.00;99.90
24164;DHT22;12319;49.204;8.116;2023-01-16T09:33:00;6.00;99.90
24164;DHT22;12319;49.204;8.116;2023-01-16T09:35:26;6.10;99.90
24164;DHT22;12319;49.204;8.116;2023-01-16T09:37:51;6.20;99.90
24164;DHT22;12319;49.204;8.116;2023-01-16T09:40:19;6.20;99.90
24164;DHT22;12319;49.204;8.116;2023-01-16T09:45:36;6.30;99.90
24164;DHT22;12319;49.204;8.116;2023-01-16T09:48:14;6.30;99.90
24164;DHT22;12319;49.204;8.116;2023-01-16T09:50:48;6.30;99.90
24164;DHT22;12319;49.204;8.116;2023-01-16T09:53:23;6.30;99.90
24164;DHT22;12319;49.204;8.116;2023-01-16T09:56:10;6.30;99.90
24164;DHT22;12319;49.204;8.116;2023-01-16T10:01:53;6.40;99.90
24164;DHT22;12319;49.204;8.116;2023-01-16T10:04:21;6.50;99.90
24164;DHT22;12319;49.204;8.116;2023-01-16T10:07:17;6.50;99.90
24164;DHT22;12319;49.204;8.116;2023-01-16T10:12:40;6.60;99.90
24164;DHT22;12319;49.204;8.116;2023-01-16T10:17:58;6.70;99.90
24164;DHT22;12319;49.204;8.116;2023-01-16T10:28:37;6.90;99.90
24164;DHT22;12319;49.204;8.116;2023-01-16T10:31:13;6.90;99.90
24164;DHT22;12319;49.204;8.116;2023-01-16T10:33:57;7.00;99.80
24164;DHT22;12319;49.204;8.116;2023-01-16T10:36:29;7.00;99.90
24164;DHT22;12319;49.204;8.116;2023-01-16T10:38:57;7.10;99.70
24164;DHT22;12319;49.204;8.116;2023-01-16T10:41:28;7.20;99.90
24164;DHT22;12319;49.204;8.116;2023-01-16T10:44:34;7.30;99.30
24164;DHT22;12319;49.204;8.116;2023-01-16T10:47:27;7.40;99.30
24164;DHT22;12319;49.204;8.116;2023-01-16T10:50:13;7.50;98.90
24164;DHT22;12319;49.204;8.116;2023-01-16T10:52:39;7.60;99.00
24164;DHT22;12319;49.204;8.116;2023-01-16T10:55:06;7.40;98.30
24164;DHT22;12319;49.204;8.116;2023-01-16T10:57:32;7.60;98.10
24164;DHT22;12319;49.204;8.116;2023-01-16T11:00:20;7.70;98.00
24164;DHT22;12319;49.204;8.116;2023-01-16T11:02:50;7.80;98.30
24164;DHT22;12319;49.204;8.116;2023-01-16T11:05:29;7.80;97.40
24164;DHT22;12319;49.204;8.116;2023-01-16T11:08:05;7.80;97.50
24164;DHT22;12319;49.204;8.116;2023-01-16T11:10:31;7.80;96.90
24164;DHT22;12319;49.204;8.116;2023-01-16T11:12:57;7.80;96.60
24164;DHT22;12319;49.204;8.116;2023-01-16T11:16:00;7.80;97.10
24164;DHT22;12319;49.204;8.116;2023-01-16T11:18:44;7.80;96.80
24164;DHT22;12319;49.204;8.116;2023-01-16T11:21:28;8.00;96.60
24164;DHT22;12319;49.204;8.116;2023-01-16T11:24:10;8.10;96.70
24164;DHT22;12319;49.204;8.116;2023-01-16T11:26:38;8.20;96.80
24164;DHT22;12319;49.204;8.116;2023-01-16T11:29:04;8.30;96.40
24164;DHT22;12319;49.204;8.116;2023-01-16T11:31:30;8.30;95.60
24164;DHT22;12319;49.204;8.116;2023-01-16T11:33:59;8.40;96.00
24164;DHT22;12319;49.204;8.116;2023-01-16T11:36:30;8.40;95.70
24164;DHT22;12319;49.204;8.116;2023-01-16T11:38:56;8.40;95.60
24164;DHT22;12319;49.204;8.116;2023-01-16T11:41:35;8.40;95.50
24164;DHT22;12319;49.204;8.116;2023-01-16T11:44:13;8.40;95.70
24164;DHT22;12319;49.204;8.116;2023-01-16T11:47:00;8.40;95.80
24164;DHT22;12319;49.204;8.116;2023-01-16T11:49:46;8.40;95.00
24164;DHT22;12319;49.204;8.116;2023-01-16T11:52:14;8.30;95.20
24164;DHT22;12319;49.204;8.116;2023-01-16T11:54:53;8.30;95.20
24164;DHT22;12319;49.204;8.116;2023-01-16T12:03:43;8.40;95.50
24164;DHT22;12319;49.204;8.116;2023-01-16T12:06:40;8.50;95.30
24164;DHT22;12319;49.204;8.116;2023-01-16T12:09:42;8.60;95.30
24164;DHT22;12319;49.204;8.116;2023-01-16T12:12:23;8.80;95.00
24164;DHT22;12319;49.204;8.116;2023-01-16T12:15:31;9.10;94.20
24164;DHT22;12319;49.204;8.116;2023-01-16T12:18:16;9.20;94.30
24164;DHT22;12319;49.204;8.116;2023-01-16T12:21:08;9.20;93.90
24164;DHT22;12319;49.204;8.116;2023-01-16T12:23:49;9.30;93.50
24164;DHT22;12319;49.204;8.116;2023-01-16T12:26:29;9.40;93.80
24164;DHT22;12319;49.204;8.116;2023-01-16T12:29:11;9.30;92.90
24164;DHT22;12319;49.204;8.116;2023-01-16T12:37:26;9.10;93.00
24164;DHT22;12319;49.204;8.116;2023-01-16T12:45:59;8.90;93.50
24164;DHT22;12319;49.204;8.116;2023-01-16T12:48:36;8.80;93.30
24164;DHT22;12319;49.204;8.116;2023-01-16T12:57:11;8.60;94.20
24164;DHT22;12319;49.204;8.116;2023-01-16T12:59:50;8.50;94.40
24164;DHT22;12319;49.204;8.116;2023-01-16T13:04:53;8.50;94.40
24164;DHT22;12319;49.204;8.116;2023-01-16T13:07:22;8.50;94.30
24164;DHT22;12319;49.204;8.116;2023-01-16T13:12:57;8.50;93.80
24164;DHT22;12319;49.204;8.116;2023-01-16T13:15:45;8.50;93.50
24164;DHT22;12319;49.204;8.116;2023-01-16T13:18:18;8.50;93.50
24164;DHT22;12319;49.204;8.116;2023-01-16T13:20:52;8.50;93.40
24164;DHT22;12319;49.204;8.116;2023-01-16T13:23:32;8.50;93.50
24164;DHT22;12319;49.204;8.116;2023-01-16T13:26:03;8.60;93.70
24164;DHT22;12319;49.204;8.116;2023-01-16T13:28:51;8.70;93.30
24164;DHT22;12319;49.204;8.116;2023-01-16T13:31:39;8.80;92.60
24164;DHT22;12319;49.204;8.116;2023-01-16T13:34:38;8.80;92.60
24164;DHT22;12319;49.204;8.116;2023-01-16T13:42:16;8.70;92.10
24164;DHT22;12319;49.204;8.116;2023-01-16T13:44:46;8.70;91.70
24164;DHT22;12319;49.204;8.116;2023-01-16T13:47:35;8.70;92.10
24164;DHT22;12319;49.204;8.116;2023-01-16T13:50:26;8.70;92.30
24164;DHT22;12319;49.204;8.116;2023-01-16T13:53:00;8.70;91.90
24164;DHT22;12319;49.204;8.116;2023-01-16T13:55:33;8.70;91.70
24164;DHT22;12319;49.204;8.116;2023-01-16T13:58:18;8.70;91.40
24164;DHT22;12319;49.204;8.116;2023-01-16T14:00:46;8.80;90.80
24164;DHT22;12319;49.204;8.116;2023-01-16T14:03:24;8.80;91.00
24164;DHT22;12319;49.204;8.116;2023-01-16T14:05:53;8.80;91.00
24164;DHT22;12319;49.204;8.116;2023-01-16T14:08:27;8.80;90.80
24164;DHT22;12319;49.204;8.116;2023-01-16T14:14:33;8.70;90.80
24164;DHT22;12319;49.204;8.116;2023-01-16T14:17:25;8.70;90.90
24164;DHT22;12319;49.204;8.116;2023-01-16T14:20:01;8.70;91.50
24164;DHT22;12319;49.204;8.116;2023-01-16T14:22:34;8.70;91.50
24164;DHT22;12319;49.204;8.116;2023-01-16T14:25:00;8.60;91.50
24164;DHT22;12319;49.204;8.116;2023-01-16T14:27:32;8.50;91.80
24164;DHT22;12319;49.204;8.116;2023-01-16T14:30:02;8.50;92.30
24164;DHT22;12319;49.204;8.116;2023-01-16T14:32:32;8.30;92.90
24164;DHT22;12319;49.204;8.116;2023-01-16T14:35:04;8.30;93.50
24164;DHT22;12319;49.204;8.116;2023-01-16T14:37:42;8.10;94.20
24164;DHT22;12319;49.204;8.116;2023-01-16T14:45:35;7.90;96.00
24164;DHT22;12319;49.204;8.116;2023-01-16T14:54:02;7.80;97.10
24164;DHT22;12319;49.204;8.116;2023-01-16T14:56:52;7.60;97.80
24164;DHT22;12319;49.204;8.116;2023-01-16T14:59:24;7.60;98.30
24164;DHT22;12319;49.204;8.116;2023-01-16T15:01:58;7.50;99.00
24164;DHT22;12319;49.204;8.116;2023-01-16T15:05:06;7.40;99.60
24164;DHT22;12319;49.204;8.116;2023-01-16T15:07:43;7.30;99.90
24164;DHT22;12319;49.204;8.116;2023-01-16T15:10:17;7.30;99.90
24164;DHT22;12319;49.204;8.116;2023-01-16T15:12:44;7.20;99.90
24164;DHT22;12319;49.204;8.116;2023-01-16T15:15:20;7.20;99.90
24164;DHT22;12319;49.204;8.116;2023-01-16T15:17:49;7.10;99.90
24164;DHT22;12319;49.204;8.116;2023-01-16T15:20:34;7.10;99.90
24164;DHT22;12319;49.204;8.116;2023-01-16T15:31:14;6.80;99.90
24164;DHT22;12319;49.204;8.116;2023-01-16T15:33:41;6.80;99.90
24164;DHT22;12319;49.204;8.116;2023-01-16T15:38:53;6.80;99.90
24164;DHT22;12319;49.204;8.116;2023-01-16T15:41:25;6.80;99.90
24164;DHT22;12319;49.204;8.116;2023-01-16T15:44:17;6.70;99.90
24164;DHT22;12319;49.204;8.116;2023-01-16T15:47:12;6.70;99.90
24164;DHT22;12319;49.204;8.116;2023-01-16T15:49:50;6.70;99.90
24164;DHT22;12319;49.204;8.116;2023-01-16T15:52:19;6.70;99.90
24164;DHT22;12319;49.204;8.116;2023-01-16T15:54:45;6.70;99.90
24164;DHT22;12319;49.204;8.116;2023-01-16T15:57:16;6.70;99.90
24164;DHT22;12319;49.204;8.116;2023-01-16T15:59:55;6.70;99.90
24164;DHT22;12319;49.204;8.116;2023-01-16T16:02:23;6.60;99.90
24164;DHT22;12319;49.204;8.116;2023-01-16T16:04:54;6.60;99.90
24164;DHT22;12319;49.204;8.116;2023-01-16T16:07:22;6.60;99.90
24164;DHT22;12319;49.204;8.116;2023-01-16T16:09:51;6.60;99.90
24164;DHT22;12319;49.204;8.116;2023-01-16T16:12:19;6.60;99.90
24164;DHT22;12319;49.204;8.116;2023-01-16T16:14:45;6.60;99.90
24164;DHT22;12319;49.204;8.116;2023-01-16T16:17:34;6.60;99.90
24164;DHT22;12319;49.204;8.116;2023-01-16T16:20:34;6.50;99.90
24164;DHT22;12319;49.204;8.116;2023-01-16T16:25:57;6.50;99.90
24164;DHT22;12319;49.204;8.116;2023-01-16T16:28:33;6.50;99.90
24164;DHT22;12319;49.204;8.116;2023-01-16T16:31:25;6.50;99.90
24164;DHT22;12319;49.204;8.116;2023-01-16T16:36:23;6.50;99.90
24164;DHT22;12319;49.204;8.116;2023-01-16T16:38:51;6.50;99.90
24164;DHT22;12319;49.204;8.116;2023-01-16T16:43:56;6.50;99.90
24164;DHT22;12319;49.204;8.116;2023-01-16T16:48:49;6.50;99.90
24164;DHT22;12319;49.204;8.116;2023-01-16T16:51:20;6.40;99.90
24164;DHT22;12319;49.204;8.116;2023-01-16T16:53:51;6.40;99.90
24164;DHT22;12319;49.204;8.116;2023-01-16T16:56:23;6.40;99.90
24164;DHT22;12319;49.204;8.116;2023-01-16T16:58:49;6.30;99.90
24164;DHT22;12319;49.204;8.116;2023-01-16T17:01:18;6.30;99.90
24164;DHT22;12319;49.204;8.116;2023-01-16T17:03:46;6.40;99.90
24164;DHT22;12319;49.204;8.116;2023-01-16T17:06:20;6.30;99.90
24164;DHT22;12319;49.204;8.116;2023-01-16T17:08:47;6.30;99.90
24164;DHT22;12319;49.204;8.116;2023-01-16T17:11:13;6.30;99.90
24164;DHT22;12319;49.204;8.116;2023-01-16T17:13:39;6.30;99.90
24164;DHT22;12319;49.204;8.116;2023-01-16T17:16:21;6.20;99.90
24164;DHT22;12319;49.204;8.116;2023-01-16T17:18:47;6.20;99.90
24164;DHT22;12319;49.204;8.116;2023-01-16T17:21:17;6.20;99.90
24164;DHT22;12319;49.204;8.116;2023-01-16T17:23:44;6.20;99.90
24164;DHT22;12319;49.204;8.116;2023-01-16T17:26:10;6.10;99.90
24164;DHT22;12319;49.204;8.116;2023-01-16T17:28:38;6.20;99.90
24164;DHT22;12319;49.204;8.116;2023-01-16T17:31:06;6.10;99.90
24164;DHT22;12319;49.204;8.116;2023-01-16T17:33:32;6.10;99.90
24164;DHT22;12319;49.204;8.116;2023-01-16T17:35:57;6.10;99.90
24164;DHT22;12319;49.204;8.116;2023-01-16T17:38:39;6.10;99.90
24164;DHT22;12319;49.204;8.116;2023-01-16T17:41:14;6.00;99.90
24164;DHT22;12319;49.204;8.116;2023-01-16T17:43:40;6.00;99.90
24164;DHT22;12319;49.204;8.116;2023-01-16T17:46:24;6.00;99.90
24164;DHT22;12319;49.204;8.116;2023-01-16T17:48:50;5.90;99.90
24164;DHT22;12319;49.204;8.116;2023-01-16T17:51:16;5.90;99.90
24164;DHT22;12319;49.204;8.116;2023-01-16T17:53:49;5.90;99.90
24164;DHT22;12319;49.204;8.116;2023-01-16T17:56:15;5.90;99.90
24164;DHT22;12319;49.204;8.116;2023-01-16T17:58:42;5.80;99.90
24164;DHT22;12319;49.204;8.116;2023-01-16T18:01:17;5.80;99.90
24164;DHT22;12319;49.204;8.116;2023-01-16T18:03:50;5.80;99.90
24164;DHT22;12319;49.204;8.116;2023-01-16T18:06:32;5.80;99.90
24164;DHT22;12319;49.204;8.116;2023-01-16T18:08:57;5.70;99.90
24164;DHT22;12319;49.204;8.116;2023-01-16T18:11:24;5.70;99.90
24164;DHT22;12319;49.204;8.116;2023-01-16T18:14:10;5.80;99.90
24164;DHT22;12319;49.204;8.116;2023-01-16T18:16:54;5.80;99.90
24164;DHT22;12319;49.204;8.116;2023-01-16T18:19:38;5.80;99.90
24164;DHT22;12319;49.204;8.116;2023-01-16T18:22:04;5.70;99.90
24164;DHT22;12319;49.204;8.116;2023-01-16T18:24:37;5.70;99.90
24164;DHT22;12319;49.204;8.116;2023-01-16T18:27:05;5.70;99.90
24164;DHT22;12319;49.204;8.116;2023-01-16T18:29:31;5.70;99.90
24164;DHT22;12319;49.204;8.116;2023-01-16T18:31:57;5.70;99.90